Terminal Aerodrome Forecast
Issued by NWS

Home | Current Version | Previous Version | Text Only | Print | Product List | Glossary On
Versions: 1 2 3 4 5 6 7 8 9 10 11 12 13 14 15 16 17 18 19 20 21
000
FTUS41 KGYX 272337
TAFMHT
TAF
KMHT 272337Z 2800/2824 14005KT P6SM SCT020 BKN200
     FM280200 15004KT P6SM OVC020
     FM280700 VRB03KT 3SM BR OVC007
      TEMPO 2808/2812 3/4SM BR
     FM281400 24005KT P6SM BKN015
     FM281700 26010KT P6SM SCT035=

USA.gov is the U.S. government's official web portal to all federal, state and local government web resources and services.